createdAt,value
2022-10-21T00:01:12.982Z,6.67
2022-10-21T00:04:01.558Z,6.66
2022-10-21T00:06:49.490Z,6.40
2022-10-21T00:09:40.709Z,5.98
2022-10-21T00:12:27.917Z,6.64
2022-10-21T00:15:14.688Z,6.63
2022-10-21T00:18:00.914Z,7.07
2022-10-21T00:20:48.004Z,7.04
2022-10-21T00:23:34.019Z,6.85
2022-10-21T00:26:21.870Z,6.75
2022-10-21T00:29:07.952Z,6.58
2022-10-21T00:31:54.655Z,6.92
2022-10-21T00:34:43.301Z,6.45
2022-10-21T00:37:30.931Z,6.90
2022-10-21T00:40:18.040Z,7.17
2022-10-21T00:43:04.827Z,7.25
2022-10-21T00:45:54.579Z,7.19
2022-10-21T00:48:43.101Z,6.98
2022-10-21T00:51:30.700Z,6.75
2022-10-21T00:54:18.044Z,6.43
2022-10-21T00:57:11.945Z,6.59
2022-10-21T01:00:00.585Z,6.43
2022-10-21T01:02:47.334Z,6.26
2022-10-21T01:05:37.730Z,6.78
2022-10-21T01:08:25.701Z,6.94
2022-10-21T01:11:15.390Z,6.95
2022-10-21T01:14:24.638Z,6.71
2022-10-21T01:17:51.221Z,6.68
2022-10-21T01:21:09.277Z,6.74
2022-10-21T01:24:29.790Z,6.83
2022-10-21T01:27:50.161Z,6.69
2022-10-21T01:30:38.198Z,6.54
2022-10-21T01:33:52.603Z,6.17
2022-10-21T01:36:42.895Z,6.17
2022-10-21T01:39:39.250Z,6.67
2022-10-21T01:42:32.934Z,6.59
2022-10-21T01:45:33.648Z,6.64
2022-10-21T01:48:34.553Z,6.55
2022-10-21T01:51:22.905Z,5.99
2022-10-21T01:54:14.297Z,5.71
2022-10-21T01:57:02.567Z,6.01
2022-10-21T01:59:49.895Z,5.99
2022-10-21T02:02:39.732Z,6.11
2022-10-21T02:05:31.768Z,5.80
2022-10-21T02:08:17.842Z,6.06
2022-10-21T02:11:07.749Z,5.80
2022-10-21T02:14:02.837Z,5.55
2022-10-21T02:16:50.127Z,5.97
2022-10-21T02:19:39.131Z,5.37
2022-10-21T02:22:25.683Z,5.87
2022-10-21T02:25:23.118Z,5.45
2022-10-21T02:28:10.078Z,5.63
2022-10-21T02:31:14.398Z,5.99
2022-10-21T02:34:14.937Z,6.04
2022-10-21T02:37:11.254Z,4.49
2022-10-21T02:40:18.928Z,5.20
2022-10-21T02:43:11.085Z,5.19
2022-10-21T02:46:05.953Z,5.73
2022-10-21T02:48:53.306Z,5.95
2022-10-21T02:51:41.141Z,5.16
2022-10-21T02:54:27.361Z,5.79
2022-10-21T02:57:14.173Z,5.09
2022-10-21T03:00:00.651Z,5.68
2022-10-21T03:02:50.765Z,5.87
2022-10-21T03:05:37.594Z,5.32
2022-10-21T03:08:23.873Z,5.67
2022-10-21T03:11:11.547Z,5.82
2022-10-21T03:13:59.145Z,5.50
2022-10-21T03:16:45.772Z,5.47
2022-10-21T03:19:39.032Z,5.77
2022-10-21T03:22:25.524Z,5.49
2022-10-21T03:25:14.008Z,5.83
2022-10-21T03:28:00.383Z,5.74
2022-10-21T03:30:46.608Z,5.62
2022-10-21T03:33:33.034Z,5.59
2022-10-21T03:36:19.972Z,5.98
2022-10-21T03:39:06.792Z,5.85
2022-10-21T03:41:53.597Z,5.86
2022-10-21T03:44:40.368Z,5.87
2022-10-21T03:47:27.635Z,5.83
2022-10-21T03:50:17.331Z,5.86
2022-10-21T03:53:13.780Z,6.14
2022-10-21T03:56:14.808Z,5.49
2022-10-21T03:59:06.751Z,5.86
2022-10-21T04:01:54.680Z,5.85
2022-10-21T04:04:42.210Z,5.86
2022-10-21T04:07:32.441Z,5.63
2022-10-21T04:10:22.989Z,5.92
2022-10-21T04:13:09.757Z,5.99
2022-10-21T04:16:00.864Z,6.02
2022-10-21T04:18:51.277Z,5.92
2022-10-21T04:21:38.049Z,6.33
2022-10-21T04:24:24.630Z,6.40
2022-10-21T04:27:11.287Z,6.31
2022-10-21T04:29:58.781Z,6.50
2022-10-21T04:32:56.598Z,6.59
2022-10-21T04:35:46.518Z,6.89
2022-10-21T04:38:34.089Z,6.49
2022-10-21T04:41:29.487Z,6.45
2022-10-21T04:44:17.509Z,6.49
2022-10-21T04:47:06.437Z,6.68
2022-10-21T04:49:54.954Z,6.59
2022-10-21T04:52:41.902Z,6.64
2022-10-21T04:55:31.500Z,6.78
2022-10-21T04:58:21.871Z,6.64
2022-10-21T05:01:11.839Z,6.27
2022-10-21T05:04:01.660Z,6.62
2022-10-21T05:06:49.140Z,6.14
2022-10-21T05:09:43.634Z,6.52
2022-10-21T05:12:31.063Z,6.95
2022-10-21T05:15:17.633Z,7.01
2022-10-21T05:18:05.608Z,6.95
2022-10-21T05:20:55.122Z,7.02
2022-10-21T05:23:42.208Z,6.65
2022-10-21T05:26:32.770Z,6.94
2022-10-21T05:29:25.642Z,6.90
2022-10-21T05:32:18.935Z,6.99
2022-10-21T05:35:12.377Z,7.04
2022-10-21T05:37:59.146Z,7.16
2022-10-21T05:40:45.967Z,6.92
2022-10-21T05:43:33.766Z,7.33
2022-10-21T05:46:21.077Z,7.04
2022-10-21T05:49:12.849Z,6.84
2022-10-21T05:52:06.484Z,7.21
2022-10-21T05:57:46.997Z,7.43
2022-10-21T06:00:35.817Z,7.37
2022-10-21T06:03:26.007Z,7.24
2022-10-21T06:06:12.986Z,7.48
2022-10-21T06:09:01.367Z,7.32
2022-10-21T06:11:48.930Z,7.61
2022-10-21T06:14:43.123Z,7.42
2022-10-21T06:17:30.569Z,7.56
2022-10-21T06:20:19.630Z,7.68
2022-10-21T06:23:12.400Z,7.81
2022-10-21T06:26:01.826Z,7.86
2022-10-21T06:28:49.169Z,8.09
2022-10-21T06:31:37.917Z,7.41
2022-10-21T06:34:27.586Z,8.00
2022-10-21T06:37:16.511Z,7.21
2022-10-21T06:40:05.830Z,7.88
2022-10-21T06:42:53.576Z,8.25
2022-10-21T06:45:39.985Z,7.63
2022-10-21T06:48:27.070Z,7.42
2022-10-21T06:51:20.117Z,8.05
2022-10-21T06:54:09.886Z,8.02
2022-10-21T06:56:56.838Z,7.82
2022-10-21T06:59:47.493Z,8.21
2022-10-21T07:02:34.489Z,8.41
2022-10-21T07:05:22.149Z,8.44
2022-10-21T07:08:12.068Z,8.31
2022-10-21T07:11:00.884Z,8.20
2022-10-21T07:13:58.478Z,8.40
2022-10-21T07:16:55.687Z,8.68
2022-10-21T07:19:42.641Z,8.65
2022-10-21T07:22:38.559Z,8.91
2022-10-21T07:25:27.941Z,9.10
2022-10-21T07:28:15.923Z,9.30
2022-10-21T07:31:06.123Z,9.27
2022-10-21T07:33:53.624Z,9.54
2022-10-21T07:36:52.852Z,9.59
2022-10-21T07:39:39.616Z,9.40
2022-10-21T07:42:28.694Z,9.56
2022-10-21T07:45:16.578Z,9.56
2022-10-21T07:48:03.260Z,10.14
2022-10-21T07:50:52.624Z,9.57
2022-10-21T07:53:42.530Z,10.02
2022-10-21T07:56:34.823Z,9.87
2022-10-21T07:59:23.554Z,10.14
2022-10-21T08:02:14.164Z,10.16
2022-10-21T08:05:00.659Z,9.99
2022-10-21T08:07:48.979Z,10.35
2022-10-21T08:10:47.521Z,10.09
2022-10-21T08:13:35.655Z,10.34
2022-10-21T08:16:25.682Z,10.49
2022-10-21T08:19:20.508Z,10.35
2022-10-21T08:22:09.863Z,10.76
2022-10-21T08:24:56.740Z,10.67
2022-10-21T08:27:46.524Z,10.74
2022-10-21T08:30:35.742Z,11.09
2022-10-21T08:33:26.523Z,11.21
2022-10-21T08:36:18.088Z,11.23
2022-10-21T08:39:08.666Z,11.21
2022-10-21T08:41:55.538Z,11.53
2022-10-21T08:44:57.102Z,12.02
2022-10-21T08:47:56.738Z,12.02
2022-10-21T08:50:50.739Z,11.88
2022-10-21T08:53:52.466Z,12.07
2022-10-21T08:56:40.520Z,12.28
2022-10-21T08:59:28.956Z,12.21
2022-10-21T09:02:25.616Z,11.95
2022-10-21T09:05:16.649Z,12.22
2022-10-21T09:08:15.976Z,11.98
2022-10-21T09:11:24.625Z,12.64
2022-10-21T09:14:51.042Z,12.90
2022-10-21T09:18:33.739Z,12.92
2022-10-21T09:21:27.588Z,13.02
2022-10-21T09:24:50.722Z,13.38
2022-10-21T09:27:55.186Z,12.92
2022-10-21T09:30:44.405Z,12.83
2022-10-21T09:33:32.856Z,13.09
2022-10-21T09:36:49.472Z,13.38
2022-10-21T09:39:42.148Z,13.34
2022-10-21T09:42:46.292Z,13.27
2022-10-21T09:45:45.306Z,13.28
2022-10-21T09:52:05.114Z,12.98
2022-10-21T09:54:58.966Z,13.01
2022-10-21T09:57:54.502Z,12.79
2022-10-21T10:00:50.790Z,13.04
2022-10-21T10:03:47.368Z,13.46
2022-10-21T10:06:46.461Z,13.81
2022-10-21T10:09:37.105Z,13.71
2022-10-21T10:12:27.388Z,13.53
2022-10-21T10:15:31.477Z,13.32
2022-10-21T10:18:22.687Z,13.68
2022-10-21T10:21:23.390Z,13.86
2022-10-21T10:24:21.471Z,13.93
2022-10-21T10:27:23.384Z,14.38
2022-10-21T10:30:14.258Z,14.06
2022-10-21T10:33:08.432Z,14.70
2022-10-21T10:36:05.569Z,14.30
2022-10-21T10:38:56.821Z,14.83
2022-10-21T10:41:47.610Z,14.08
2022-10-21T10:44:42.962Z,14.22
2022-10-21T10:47:32.719Z,14.14
2022-10-21T10:50:38.355Z,14.40
2022-10-21T11:32:58.427Z,14.53
2022-10-21T11:39:27.507Z,14.75
2022-10-21T11:42:25.418Z,14.79
2022-10-21T11:45:56.673Z,14.81
2022-10-21T11:49:04.770Z,14.73
2022-10-21T11:52:37.926Z,14.13
2022-10-21T11:59:15.125Z,14.90
2022-10-21T12:02:18.019Z,14.43
2022-10-21T12:05:32.961Z,14.57
2022-10-21T12:08:41.344Z,14.55
2022-10-21T12:11:58.472Z,14.71
2022-10-21T12:14:58.436Z,14.41
2022-10-21T12:17:49.127Z,14.55
2022-10-21T12:20:42.194Z,14.80
2022-10-21T12:23:32.606Z,14.82
2022-10-21T12:30:02.443Z,14.46
2022-10-21T12:33:16.292Z,14.58
2022-10-21T12:36:21.736Z,14.91
2022-10-21T12:39:32.853Z,14.70
2022-10-21T12:42:33.831Z,14.15
2022-10-21T12:45:30.465Z,14.12
2022-10-21T12:48:31.519Z,14.42
2022-10-21T12:51:39.585Z,14.51
2022-10-21T12:54:43.333Z,14.55
2022-10-21T12:57:37.128Z,14.36
2022-10-21T13:00:36.589Z,14.53
2022-10-21T13:03:56.530Z,14.13
2022-10-21T13:06:53.275Z,14.55
2022-10-21T13:09:44.013Z,14.49
2022-10-21T13:12:40.707Z,14.49
2022-10-21T13:15:32.478Z,14.68
2022-10-21T13:19:12.559Z,14.73
2022-10-21T13:22:14.907Z,14.57
2022-10-21T13:25:22.877Z,14.88
2022-10-21T13:28:12.419Z,14.85
2022-10-21T13:31:00.636Z,14.56
2022-10-21T13:33:52.725Z,14.85
2022-10-21T13:36:47.473Z,14.80
2022-10-21T13:39:42.945Z,14.46
2022-10-21T13:42:41.226Z,14.85
2022-10-21T13:48:52.529Z,14.40
2022-10-21T13:51:47.719Z,14.60
2022-10-21T13:54:38.528Z,14.58
2022-10-21T13:57:40.632Z,14.53
2022-10-21T14:00:32.815Z,14.04
2022-10-21T14:03:28.073Z,14.28
2022-10-21T14:06:31.966Z,14.52
2022-10-21T14:09:24.799Z,14.80
2022-10-21T14:12:29.773Z,14.80
2022-10-21T14:15:23.545Z,14.08
2022-10-21T14:18:29.393Z,14.57
2022-10-21T14:21:24.608Z,14.33
2022-10-21T14:24:36.935Z,14.71
2022-10-21T14:27:45.436Z,14.42
2022-10-21T14:30:37.105Z,14.02
2022-10-21T14:36:34.515Z,14.38
2022-10-21T14:39:37.066Z,14.79
2022-10-21T14:42:26.550Z,14.28
2022-10-21T14:45:18.266Z,14.63
2022-10-21T14:48:28.140Z,14.12
2022-10-21T14:51:25.616Z,14.57
2022-10-21T14:54:33.641Z,14.68
2022-10-21T14:57:50.222Z,14.58
2022-10-21T15:00:42.492Z,13.79
2022-10-21T15:03:45.450Z,14.32
2022-10-21T15:06:38.485Z,14.29
2022-10-21T15:09:37.750Z,13.99
2022-10-21T15:12:33.439Z,14.15
2022-10-21T15:15:53.959Z,14.06
2022-10-21T15:18:53.974Z,14.52
2022-10-21T15:21:55.434Z,13.85
2022-10-21T15:24:51.737Z,14.25
2022-10-21T15:27:49.069Z,13.97
2022-10-21T15:33:49.440Z,13.64
2022-10-21T15:36:37.963Z,14.04
2022-10-21T15:42:27.503Z,14.31
2022-10-21T15:45:23.784Z,14.22
2022-10-21T15:48:12.813Z,14.38
2022-10-21T15:51:06.640Z,14.23
2022-10-21T15:53:59.076Z,14.14
2022-10-21T15:57:04.463Z,14.28
2022-10-21T16:00:03.472Z,14.02
2022-10-21T16:02:51.791Z,13.88
2022-10-21T16:08:43.705Z,13.57
2022-10-21T16:12:00.137Z,13.77
2022-10-21T16:17:54.678Z,13.85
2022-10-21T16:23:53.752Z,13.62
2022-10-21T16:26:51.494Z,13.48
2022-10-21T16:29:45.324Z,13.44
2022-10-21T16:32:45.480Z,13.65
2022-10-21T16:35:33.827Z,13.80
2022-10-21T16:41:13.814Z,13.65
2022-10-21T16:44:02.620Z,13.61
2022-10-21T16:46:59.258Z,13.78
2022-10-21T16:50:00.412Z,13.65
2022-10-21T16:55:56.910Z,13.50
2022-10-21T16:58:44.737Z,13.31
2022-10-21T17:01:43.473Z,12.97
2022-10-21T17:07:32.454Z,13.16
2022-10-21T17:10:26.449Z,13.49
2022-10-21T17:22:24.995Z,13.13
2022-10-21T17:28:21.778Z,13.07
2022-10-21T17:31:22.464Z,12.93
2022-10-21T17:37:13.829Z,13.12
2022-10-21T17:40:00.359Z,12.95
2022-10-21T17:42:59.545Z,12.88
2022-10-21T17:45:51.484Z,12.68
2022-10-21T17:51:39.211Z,12.95
2022-10-21T17:54:29.154Z,12.85
2022-10-21T17:57:32.507Z,12.74
2022-10-21T18:00:26.641Z,12.75
2022-10-21T18:03:18.378Z,12.75
2022-10-21T18:06:08.552Z,12.70
2022-10-21T18:12:12.658Z,12.72
2022-10-21T18:15:11.428Z,12.75
2022-10-21T18:18:23.504Z,12.75
2022-10-21T18:21:18.643Z,12.85
2022-10-21T18:24:16.020Z,12.72
2022-10-21T18:27:10.469Z,12.59
2022-10-21T18:33:11.154Z,12.62
2022-10-21T18:36:12.462Z,12.47
2022-10-21T18:39:02.559Z,12.56
2022-10-21T18:44:58.024Z,12.56
2022-10-21T18:47:50.128Z,12.57
2022-10-21T18:50:39.479Z,12.49
2022-10-21T18:53:32.481Z,12.68
2022-10-21T18:56:27.433Z,12.38
2022-10-21T18:59:18.896Z,12.35
2022-10-21T19:05:16.493Z,12.68
2022-10-21T19:08:14.572Z,12.51
2022-10-21T19:11:04.921Z,12.24
2022-10-21T19:13:55.666Z,12.63
2022-10-21T19:16:47.568Z,12.02
2022-10-21T19:19:39.521Z,12.11
2022-10-21T19:22:37.551Z,12.63
2022-10-21T19:25:30.814Z,12.11
2022-10-21T19:28:18.529Z,12.15
2022-10-21T19:34:04.677Z,12.44
2022-10-21T19:36:58.793Z,12.04
2022-10-21T19:39:49.490Z,12.54
2022-10-21T19:42:37.975Z,12.37
2022-10-21T19:45:37.399Z,12.07
2022-10-21T19:48:32.224Z,12.38
2022-10-21T19:51:25.575Z,12.22
2022-10-21T19:54:16.498Z,11.53
2022-10-21T19:57:06.399Z,11.75
2022-10-21T19:59:56.421Z,11.41
2022-10-21T20:02:51.146Z,11.51
2022-10-21T20:05:48.898Z,12.11
2022-10-21T20:08:42.774Z,12.09
2022-10-21T20:11:30.670Z,12.17
2022-10-21T20:14:21.709Z,11.96
2022-10-21T20:17:09.237Z,12.04
2022-10-21T20:19:56.051Z,11.30
2022-10-21T20:22:44.681Z,11.24
2022-10-21T20:25:41.662Z,11.14
2022-10-21T20:28:29.136Z,11.01
2022-10-21T20:31:18.915Z,11.51
2022-10-21T20:34:06.856Z,11.37
2022-10-21T20:36:57.622Z,9.21
2022-10-21T20:39:44.958Z,10.13
2022-10-21T20:42:32.032Z,11.20
2022-10-21T20:45:27.676Z,11.32
2022-10-21T20:48:19.473Z,10.78
2022-10-21T20:51:07.805Z,11.28
2022-10-21T20:54:04.456Z,11.18
2022-10-21T20:56:51.693Z,11.31
2022-10-21T20:59:41.466Z,11.76
2022-10-21T21:02:28.133Z,11.09
2022-10-21T21:05:18.573Z,11.74
2022-10-21T21:08:14.464Z,11.24
2022-10-21T21:11:01.623Z,11.47
2022-10-21T21:13:48.118Z,10.87
2022-10-21T21:16:34.474Z,10.82
2022-10-21T21:19:23.122Z,10.90
2022-10-21T21:22:11.851Z,11.26
2022-10-21T21:24:58.336Z,10.37
2022-10-21T21:27:46.145Z,9.31
2022-10-21T21:30:32.263Z,9.65
2022-10-21T21:33:19.815Z,9.95
2022-10-21T21:36:07.609Z,10.96
2022-10-21T21:38:54.266Z,11.46
2022-10-21T21:41:40.484Z,11.82
2022-10-21T21:44:27.382Z,11.24
2022-10-21T21:47:15.559Z,9.80
2022-10-21T21:50:02.557Z,11.25
2022-10-21T21:52:51.932Z,11.38
2022-10-21T21:55:38.080Z,11.78
2022-10-21T21:58:24.673Z,11.52
2022-10-21T22:01:11.951Z,11.50
2022-10-21T22:03:58.606Z,11.63
2022-10-21T22:06:46.265Z,12.07
2022-10-21T22:09:34.673Z,11.56
2022-10-21T22:12:39.715Z,11.98
2022-10-21T22:18:33.476Z,11.49
2022-10-21T22:21:19.745Z,11.41
2022-10-21T22:24:13.295Z,11.55
2022-10-21T22:27:01.517Z,11.81
2022-10-21T22:29:47.335Z,12.31
2022-10-21T22:32:35.023Z,12.37
2022-10-21T22:35:20.847Z,12.12
2022-10-21T22:38:07.398Z,12.41
2022-10-21T22:40:56.251Z,12.18
2022-10-21T22:43:43.012Z,12.34
2022-10-21T22:46:33.961Z,12.54
2022-10-21T22:49:24.701Z,12.22
2022-10-21T22:52:10.645Z,12.12
2022-10-21T22:54:57.395Z,12.24
2022-10-21T22:57:43.129Z,12.59
2022-10-21T23:00:30.612Z,12.50
2022-10-21T23:03:19.494Z,12.39
2022-10-21T23:06:05.498Z,12.55
2022-10-21T23:08:52.743Z,12.70
2022-10-21T23:11:39.175Z,12.43
2022-10-21T23:14:25.304Z,12.54
2022-10-21T23:17:12.264Z,12.68
2022-10-21T23:19:58.556Z,12.63
2022-10-21T23:22:44.776Z,12.40
2022-10-21T23:25:31.563Z,11.33
2022-10-21T23:31:05.583Z,11.71
2022-10-21T23:33:52.420Z,12.03
2022-10-21T23:36:38.634Z,12.26
2022-10-21T23:39:25.090Z,12.52
2022-10-21T23:42:11.939Z,12.58
2022-10-21T23:44:58.433Z,12.53
2022-10-21T23:47:44.395Z,12.63
2022-10-21T23:50:32.873Z,12.46
2022-10-21T23:53:19.474Z,12.39
2022-10-21T23:56:05.815Z,12.27
2022-10-21T23:58:52.459Z,12.32
